sensor_id;sensor_type;location;lat;lon;timestamp;P1;durP1;ratioP1;P2;durP2;ratioP2
65871;SDS011;52653;50.080;21.992;2022-12-01T00:03:07;20.40;;;12.60;;
65871;SDS011;52653;50.080;21.992;2022-12-01T00:05:39;21.10;;;13.10;;
65871;SDS011;52653;50.080;21.992;2022-12-01T00:08:11;19.60;;;11.80;;
65871;SDS011;52653;50.080;21.992;2022-12-01T00:10:43;21.30;;;12.90;;
65871;SDS011;52653;50.080;21.992;2022-12-01T00:13:15;21.70;;;13.80;;
65871;SDS011;52653;50.080;21.992;2022-12-01T00:15:47;23.70;;;14.00;;
65871;SDS011;52653;50.080;21.992;2022-12-01T00:18:19;22.60;;;13.20;;
65871;SDS011;52653;50.080;21.992;2022-12-01T00:20:51;22.00;;;14.40;;
65871;SDS011;52653;50.080;21.992;2022-12-01T00:23:24;22.10;;;13.40;;
65871;SDS011;52653;50.080;21.992;2022-12-01T00:25:59;20.50;;;12.80;;
65871;SDS011;52653;50.080;21.992;2022-12-01T00:28:33;22.70;;;13.50;;
65871;SDS011;52653;50.080;21.992;2022-12-01T00:31:06;20.60;;;13.10;;
65871;SDS011;52653;50.080;21.992;2022-12-01T00:33:39;24.30;;;13.20;;
65871;SDS011;52653;50.080;21.992;2022-12-01T00:36:11;20.90;;;13.00;;
65871;SDS011;52653;50.080;21.992;2022-12-01T00:38:44;21.60;;;13.90;;
65871;SDS011;52653;50.080;21.992;2022-12-01T00:41:15;22.70;;;14.20;;
65871;SDS011;52653;50.080;21.992;2022-12-01T00:43:47;21.90;;;13.80;;
65871;SDS011;52653;50.080;21.992;2022-12-01T00:46:20;25.10;;;16.00;;
65871;SDS011;52653;50.080;21.992;2022-12-01T00:48:52;25.30;;;14.00;;
65871;SDS011;52653;50.080;21.992;2022-12-01T00:51:24;24.50;;;15.30;;
65871;SDS011;52653;50.080;21.992;2022-12-01T00:53:56;24.90;;;15.30;;
65871;SDS011;52653;50.080;21.992;2022-12-01T00:56:28;23.50;;;14.60;;
65871;SDS011;52653;50.080;21.992;2022-12-01T00:59:00;24.70;;;14.90;;
65871;SDS011;52653;50.080;21.992;2022-12-01T01:01:32;22.70;;;15.00;;
65871;SDS011;52653;50.080;21.992;2022-12-01T01:04:04;23.50;;;15.10;;
65871;SDS011;52653;50.080;21.992;2022-12-01T01:06:36;25.20;;;16.10;;
65871;SDS011;52653;50.080;21.992;2022-12-01T01:09:08;23.90;;;16.00;;
65871;SDS011;52653;50.080;21.992;2022-12-01T01:11:41;26.40;;;17.30;;
65871;SDS011;52653;50.080;21.992;2022-12-01T01:14:13;25.60;;;16.70;;
65871;SDS011;52653;50.080;21.992;2022-12-01T01:16:44;25.70;;;16.40;;
65871;SDS011;52653;50.080;21.992;2022-12-01T01:19:16;24.60;;;15.30;;
65871;SDS011;52653;50.080;21.992;2022-12-01T01:21:48;23.80;;;15.50;;
65871;SDS011;52653;50.080;21.992;2022-12-01T01:24:20;21.20;;;15.00;;
65871;SDS011;52653;50.080;21.992;2022-12-01T01:26:52;23.20;;;15.20;;
65871;SDS011;52653;50.080;21.992;2022-12-01T01:29:24;23.80;;;16.00;;
65871;SDS011;52653;50.080;21.992;2022-12-01T01:31:56;24.50;;;14.70;;
65871;SDS011;52653;50.080;21.992;2022-12-01T01:34:28;25.00;;;15.30;;
65871;SDS011;52653;50.080;21.992;2022-12-01T01:37:00;25.40;;;15.40;;
65871;SDS011;52653;50.080;21.992;2022-12-01T01:39:31;24.20;;;14.80;;
65871;SDS011;52653;50.080;21.992;2022-12-01T01:42:03;23.80;;;15.30;;
65871;SDS011;52653;50.080;21.992;2022-12-01T01:44:51;21.70;;;14.60;;
65871;SDS011;52653;50.080;21.992;2022-12-01T01:47:25;21.80;;;13.90;;
65871;SDS011;52653;50.080;21.992;2022-12-01T01:50:01;19.60;;;13.80;;
65871;SDS011;52653;50.080;21.992;2022-12-01T01:52:37;21.20;;;13.30;;
65871;SDS011;52653;50.080;21.992;2022-12-01T01:55:12;18.80;;;12.70;;
65871;SDS011;52653;50.080;21.992;2022-12-01T01:57:44;20.60;;;13.70;;
65871;SDS011;52653;50.080;21.992;2022-12-01T02:00:17;19.00;;;13.50;;
65871;SDS011;52653;50.080;21.992;2022-12-01T02:02:50;21.00;;;13.10;;
65871;SDS011;52653;50.080;21.992;2022-12-01T02:05:27;21.30;;;14.20;;
65871;SDS011;52653;50.080;21.992;2022-12-01T02:08:02;20.20;;;12.40;;
65871;SDS011;52653;50.080;21.992;2022-12-01T02:13:21;18.70;;;12.40;;
65871;SDS011;52653;50.080;21.992;2022-12-01T02:16:06;19.60;;;12.20;;
65871;SDS011;52653;50.080;21.992;2022-12-01T02:18:45;18.60;;;12.30;;
65871;SDS011;52653;50.080;21.992;2022-12-01T02:21:26;18.40;;;12.40;;
65871;SDS011;52653;50.080;21.992;2022-12-01T02:24:12;19.80;;;11.90;;
65871;SDS011;52653;50.080;21.992;2022-12-01T02:26:57;17.90;;;12.50;;
65871;SDS011;52653;50.080;21.992;2022-12-01T02:29:36;20.80;;;13.90;;
65871;SDS011;52653;50.080;21.992;2022-12-01T02:32:27;20.00;;;13.20;;
65871;SDS011;52653;50.080;21.992;2022-12-01T02:35:06;20.90;;;14.30;;
65871;SDS011;52653;50.080;21.992;2022-12-01T02:37:44;21.20;;;13.30;;
65871;SDS011;52653;50.080;21.992;2022-12-01T02:40:27;20.30;;;12.90;;
65871;SDS011;52653;50.080;21.992;2022-12-01T02:43:05;18.70;;;13.00;;
65871;SDS011;52653;50.080;21.992;2022-12-01T02:45:44;20.30;;;12.20;;
65871;SDS011;52653;50.080;21.992;2022-12-01T02:48:22;18.00;;;12.40;;
65871;SDS011;52653;50.080;21.992;2022-12-01T02:50:58;21.70;;;13.70;;
65871;SDS011;52653;50.080;21.992;2022-12-01T02:53:33;19.70;;;13.40;;
65871;SDS011;52653;50.080;21.992;2022-12-01T02:56:08;19.40;;;13.50;;
65871;SDS011;52653;50.080;21.992;2022-12-01T02:58:42;19.80;;;13.70;;
65871;SDS011;52653;50.080;21.992;2022-12-01T03:01:17;21.30;;;13.80;;
65871;SDS011;52653;50.080;21.992;2022-12-01T03:04:02;21.50;;;13.90;;
65871;SDS011;52653;50.080;21.992;2022-12-01T03:09:37;20.60;;;13.20;;
65871;SDS011;52653;50.080;21.992;2022-12-01T03:12:18;19.40;;;12.50;;
65871;SDS011;52653;50.080;21.992;2022-12-01T03:14:58;20.00;;;12.30;;
65871;SDS011;52653;50.080;21.992;2022-12-01T03:17:37;17.20;;;11.80;;
65871;SDS011;52653;50.080;21.992;2022-12-01T03:20:15;19.40;;;12.90;;
65871;SDS011;52653;50.080;21.992;2022-12-01T03:22:54;18.30;;;12.80;;
65871;SDS011;52653;50.080;21.992;2022-12-01T03:25:30;18.50;;;13.20;;
65871;SDS011;52653;50.080;21.992;2022-12-01T03:28:03;18.90;;;12.80;;
65871;SDS011;52653;50.080;21.992;2022-12-01T03:30:53;19.80;;;13.70;;
65871;SDS011;52653;50.080;21.992;2022-12-01T03:33:30;19.80;;;13.20;;
65871;SDS011;52653;50.080;21.992;2022-12-01T03:36:06;19.70;;;13.20;;
65871;SDS011;52653;50.080;21.992;2022-12-01T03:38:44;18.50;;;12.50;;
65871;SDS011;52653;50.080;21.992;2022-12-01T03:41:22;18.00;;;12.20;;
65871;SDS011;52653;50.080;21.992;2022-12-01T03:43:58;18.40;;;12.70;;
65871;SDS011;52653;50.080;21.992;2022-12-01T03:46:37;18.80;;;13.20;;
65871;SDS011;52653;50.080;21.992;2022-12-01T03:49:16;17.00;;;11.70;;
65871;SDS011;52653;50.080;21.992;2022-12-01T03:51:51;18.90;;;13.30;;
65871;SDS011;52653;50.080;21.992;2022-12-01T03:54:32;19.00;;;13.00;;
65871;SDS011;52653;50.080;21.992;2022-12-01T03:57:19;18.50;;;12.00;;
65871;SDS011;52653;50.080;21.992;2022-12-01T03:59:54;22.80;;;14.30;;
65871;SDS011;52653;50.080;21.992;2022-12-01T04:02:27;20.10;;;13.70;;
65871;SDS011;52653;50.080;21.992;2022-12-01T04:04:59;20.20;;;13.30;;
65871;SDS011;52653;50.080;21.992;2022-12-01T04:07:33;21.40;;;13.30;;
65871;SDS011;52653;50.080;21.992;2022-12-01T04:10:06;18.30;;;12.20;;
65871;SDS011;52653;50.080;21.992;2022-12-01T04:12:39;18.40;;;12.80;;
65871;SDS011;52653;50.080;21.992;2022-12-01T04:15:12;18.30;;;12.40;;
65871;SDS011;52653;50.080;21.992;2022-12-01T04:17:44;16.40;;;10.90;;
65871;SDS011;52653;50.080;21.992;2022-12-01T04:20:17;19.90;;;11.50;;
65871;SDS011;52653;50.080;21.992;2022-12-01T04:22:49;18.80;;;12.50;;
65871;SDS011;52653;50.080;21.992;2022-12-01T04:25:21;21.40;;;13.10;;
65871;SDS011;52653;50.080;21.992;2022-12-01T04:27:53;20.10;;;13.30;;
65871;SDS011;52653;50.080;21.992;2022-12-01T04:30:25;22.50;;;13.40;;
65871;SDS011;52653;50.080;21.992;2022-12-01T04:32:57;18.10;;;12.70;;
65871;SDS011;52653;50.080;21.992;2022-12-01T04:35:29;22.10;;;13.90;;
65871;SDS011;52653;50.080;21.992;2022-12-01T04:38:00;21.10;;;13.40;;
65871;SDS011;52653;50.080;21.992;2022-12-01T04:40:32;20.40;;;14.70;;
65871;SDS011;52653;50.080;21.992;2022-12-01T04:43:04;18.50;;;12.70;;
65871;SDS011;52653;50.080;21.992;2022-12-01T04:45:36;19.50;;;12.60;;
65871;SDS011;52653;50.080;21.992;2022-12-01T04:48:08;18.90;;;12.40;;
65871;SDS011;52653;50.080;21.992;2022-12-01T04:50:41;21.30;;;13.80;;
65871;SDS011;52653;50.080;21.992;2022-12-01T04:53:13;21.60;;;13.10;;
65871;SDS011;52653;50.080;21.992;2022-12-01T04:55:45;21.90;;;14.10;;
65871;SDS011;52653;50.080;21.992;2022-12-01T04:58:17;21.10;;;14.00;;
65871;SDS011;52653;50.080;21.992;2022-12-01T05:00:49;24.60;;;15.10;;
65871;SDS011;52653;50.080;21.992;2022-12-01T05:03:21;22.40;;;14.30;;
65871;SDS011;52653;50.080;21.992;2022-12-01T05:06:00;19.70;;;13.30;;
65871;SDS011;52653;50.080;21.992;2022-12-01T05:08:32;20.30;;;13.50;;
65871;SDS011;52653;50.080;21.992;2022-12-01T05:11:04;20.40;;;12.90;;
65871;SDS011;52653;50.080;21.992;2022-12-01T05:13:39;20.30;;;12.90;;
65871;SDS011;52653;50.080;21.992;2022-12-01T05:16:13;20.00;;;13.70;;
65871;SDS011;52653;50.080;21.992;2022-12-01T05:18:50;22.30;;;13.90;;
65871;SDS011;52653;50.080;21.992;2022-12-01T05:21:48;21.90;;;14.70;;
65871;SDS011;52653;50.080;21.992;2022-12-01T05:24:20;23.20;;;15.50;;
65871;SDS011;52653;50.080;21.992;2022-12-01T05:26:52;23.00;;;14.70;;
65871;SDS011;52653;50.080;21.992;2022-12-01T05:29:25;21.50;;;13.60;;
65871;SDS011;52653;50.080;21.992;2022-12-01T05:31:57;21.10;;;13.60;;
65871;SDS011;52653;50.080;21.992;2022-12-01T05:34:29;19.80;;;13.20;;
65871;SDS011;52653;50.080;21.992;2022-12-01T05:37:01;22.10;;;13.20;;
65871;SDS011;52653;50.080;21.992;2022-12-01T05:39:33;22.60;;;14.10;;
65871;SDS011;52653;50.080;21.992;2022-12-01T05:42:05;19.70;;;13.60;;
65871;SDS011;52653;50.080;21.992;2022-12-01T05:44:37;22.60;;;14.80;;
65871;SDS011;52653;50.080;21.992;2022-12-01T05:47:09;21.40;;;14.10;;
65871;SDS011;52653;50.080;21.992;2022-12-01T05:49:41;22.40;;;15.10;;
65871;SDS011;52653;50.080;21.992;2022-12-01T05:52:13;22.20;;;14.20;;
65871;SDS011;52653;50.080;21.992;2022-12-01T05:54:45;23.30;;;14.20;;
65871;SDS011;52653;50.080;21.992;2022-12-01T05:57:17;20.30;;;13.50;;
65871;SDS011;52653;50.080;21.992;2022-12-01T05:59:49;20.00;;;13.60;;
65871;SDS011;52653;50.080;21.992;2022-12-01T06:02:21;19.30;;;13.70;;
65871;SDS011;52653;50.080;21.992;2022-12-01T06:04:55;20.00;;;12.50;;
65871;SDS011;52653;50.080;21.992;2022-12-01T06:07:26;20.30;;;12.80;;
65871;SDS011;52653;50.080;21.992;2022-12-01T06:09:59;20.00;;;13.20;;
65871;SDS011;52653;50.080;21.992;2022-12-01T06:12:32;20.30;;;14.40;;
65871;SDS011;52653;50.080;21.992;2022-12-01T06:15:05;20.00;;;13.70;;
65871;SDS011;52653;50.080;21.992;2022-12-01T06:17:39;22.90;;;14.90;;
65871;SDS011;52653;50.080;21.992;2022-12-01T06:20:11;23.60;;;14.70;;
65871;SDS011;52653;50.080;21.992;2022-12-01T06:22:44;20.80;;;13.90;;
65871;SDS011;52653;50.080;21.992;2022-12-01T06:25:16;21.90;;;13.80;;
65871;SDS011;52653;50.080;21.992;2022-12-01T06:27:48;20.80;;;13.00;;
65871;SDS011;52653;50.080;21.992;2022-12-01T06:30:24;20.20;;;13.30;;
65871;SDS011;52653;50.080;21.992;2022-12-01T06:32:56;20.30;;;12.60;;
65871;SDS011;52653;50.080;21.992;2022-12-01T06:35:28;19.50;;;13.10;;
65871;SDS011;52653;50.080;21.992;2022-12-01T06:38:00;21.40;;;13.60;;
65871;SDS011;52653;50.080;21.992;2022-12-01T06:40:32;19.10;;;13.20;;
65871;SDS011;52653;50.080;21.992;2022-12-01T06:43:04;21.50;;;14.20;;
65871;SDS011;52653;50.080;21.992;2022-12-01T06:45:36;20.00;;;14.10;;
65871;SDS011;52653;50.080;21.992;2022-12-01T06:48:08;23.90;;;14.80;;
65871;SDS011;52653;50.080;21.992;2022-12-01T06:50:42;21.90;;;13.80;;
65871;SDS011;52653;50.080;21.992;2022-12-01T06:53:14;21.10;;;14.20;;
65871;SDS011;52653;50.080;21.992;2022-12-01T06:55:46;20.00;;;13.60;;
65871;SDS011;52653;50.080;21.992;2022-12-01T06:58:17;20.30;;;13.70;;
65871;SDS011;52653;50.080;21.992;2022-12-01T07:00:50;20.40;;;13.20;;
65871;SDS011;52653;50.080;21.992;2022-12-01T07:03:22;21.40;;;14.50;;
65871;SDS011;52653;50.080;21.992;2022-12-01T07:05:58;24.10;;;15.10;;
65871;SDS011;52653;50.080;21.992;2022-12-01T07:08:31;23.10;;;14.90;;
65871;SDS011;52653;50.080;21.992;2022-12-01T07:11:03;23.50;;;15.60;;
65871;SDS011;52653;50.080;21.992;2022-12-01T07:13:37;25.30;;;16.10;;
65871;SDS011;52653;50.080;21.992;2022-12-01T07:16:09;22.80;;;15.00;;
65871;SDS011;52653;50.080;21.992;2022-12-01T07:18:41;23.30;;;14.90;;
65871;SDS011;52653;50.080;21.992;2022-12-01T07:21:14;21.20;;;14.80;;
65871;SDS011;52653;50.080;21.992;2022-12-01T07:23:46;20.90;;;13.80;;
65871;SDS011;52653;50.080;21.992;2022-12-01T07:26:18;22.30;;;14.20;;
65871;SDS011;52653;50.080;21.992;2022-12-01T07:28:50;23.50;;;15.20;;
65871;SDS011;52653;50.080;21.992;2022-12-01T07:31:23;23.90;;;15.00;;
65871;SDS011;52653;50.080;21.992;2022-12-01T07:33:55;22.70;;;14.60;;
65871;SDS011;52653;50.080;21.992;2022-12-01T07:36:27;22.80;;;15.10;;
65871;SDS011;52653;50.080;21.992;2022-12-01T07:38:59;25.40;;;16.20;;
65871;SDS011;52653;50.080;21.992;2022-12-01T07:41:34;23.20;;;14.10;;
65871;SDS011;52653;50.080;21.992;2022-12-01T07:44:06;22.90;;;15.60;;
65871;SDS011;52653;50.080;21.992;2022-12-01T07:46:38;23.90;;;15.00;;
65871;SDS011;52653;50.080;21.992;2022-12-01T07:49:10;22.60;;;14.10;;
65871;SDS011;52653;50.080;21.992;2022-12-01T07:51:43;21.20;;;14.00;;
65871;SDS011;52653;50.080;21.992;2022-12-01T07:54:16;22.90;;;13.60;;
65871;SDS011;52653;50.080;21.992;2022-12-01T07:56:49;24.30;;;16.20;;
65871;SDS011;52653;50.080;21.992;2022-12-01T07:59:21;24.80;;;15.60;;
65871;SDS011;52653;50.080;21.992;2022-12-01T08:01:52;25.00;;;15.70;;
65871;SDS011;52653;50.080;21.992;2022-12-01T08:04:25;23.10;;;15.50;;
65871;SDS011;52653;50.080;21.992;2022-12-01T08:06:57;23.20;;;15.60;;
65871;SDS011;52653;50.080;21.992;2022-12-01T08:09:28;23.50;;;15.00;;
65871;SDS011;52653;50.080;21.992;2022-12-01T08:12:00;22.90;;;14.90;;
65871;SDS011;52653;50.080;21.992;2022-12-01T08:14:32;21.20;;;14.50;;
65871;SDS011;52653;50.080;21.992;2022-12-01T08:17:04;23.10;;;15.40;;
65871;SDS011;52653;50.080;21.992;2022-12-01T08:19:37;23.00;;;14.20;;
65871;SDS011;52653;50.080;21.992;2022-12-01T08:22:09;22.90;;;14.10;;
65871;SDS011;52653;50.080;21.992;2022-12-01T08:24:40;22.30;;;13.60;;
65871;SDS011;52653;50.080;21.992;2022-12-01T08:27:12;22.90;;;15.00;;
65871;SDS011;52653;50.080;21.992;2022-12-01T08:29:44;21.40;;;14.70;;
65871;SDS011;52653;50.080;21.992;2022-12-01T08:32:17;23.80;;;15.50;;
65871;SDS011;52653;50.080;21.992;2022-12-01T08:34:49;25.30;;;16.40;;
65871;SDS011;52653;50.080;21.992;2022-12-01T08:37:22;25.50;;;16.50;;
65871;SDS011;52653;50.080;21.992;2022-12-01T08:39:53;23.60;;;15.40;;
65871;SDS011;52653;50.080;21.992;2022-12-01T08:42:25;22.70;;;14.50;;
65871;SDS011;52653;50.080;21.992;2022-12-01T08:44:57;20.60;;;12.80;;
65871;SDS011;52653;50.080;21.992;2022-12-01T08:47:29;21.50;;;13.80;;
65871;SDS011;52653;50.080;21.992;2022-12-01T08:50:01;21.00;;;14.30;;
65871;SDS011;52653;50.080;21.992;2022-12-01T08:52:34;21.80;;;14.10;;
65871;SDS011;52653;50.080;21.992;2022-12-01T08:55:08;22.30;;;14.30;;
65871;SDS011;52653;50.080;21.992;2022-12-01T08:57:40;20.50;;;14.00;;
65871;SDS011;52653;50.080;21.992;2022-12-01T09:02:45;23.10;;;15.40;;
65871;SDS011;52653;50.080;21.992;2022-12-01T09:05:17;22.60;;;14.20;;
65871;SDS011;52653;50.080;21.992;2022-12-01T09:07:50;22.60;;;14.20;;
65871;SDS011;52653;50.080;21.992;2022-12-01T09:10:51;21.40;;;13.10;;
65871;SDS011;52653;50.080;21.992;2022-12-01T09:13:23;23.90;;;14.50;;
65871;SDS011;52653;50.080;21.992;2022-12-01T09:15:57;18.50;;;11.90;;
65871;SDS011;52653;50.080;21.992;2022-12-01T09:18:31;20.30;;;12.80;;
65871;SDS011;52653;50.080;21.992;2022-12-01T09:21:09;21.60;;;14.10;;
65871;SDS011;52653;50.080;21.992;2022-12-01T09:23:42;20.70;;;13.70;;
65871;SDS011;52653;50.080;21.992;2022-12-01T09:26:15;24.20;;;14.70;;
65871;SDS011;52653;50.080;21.992;2022-12-01T09:28:51;22.30;;;14.20;;
65871;SDS011;52653;50.080;21.992;2022-12-01T09:31:24;22.50;;;15.00;;
65871;SDS011;52653;50.080;21.992;2022-12-01T09:33:57;22.80;;;14.20;;
65871;SDS011;52653;50.080;21.992;2022-12-01T09:36:31;24.00;;;15.00;;
65871;SDS011;52653;50.080;21.992;2022-12-01T09:39:05;21.20;;;13.70;;
65871;SDS011;52653;50.080;21.992;2022-12-01T09:41:42;22.00;;;13.90;;
65871;SDS011;52653;50.080;21.992;2022-12-01T09:44:18;22.80;;;14.70;;
65871;SDS011;52653;50.080;21.992;2022-12-01T09:47:12;22.00;;;14.30;;
65871;SDS011;52653;50.080;21.992;2022-12-01T09:49:51;23.00;;;15.40;;
65871;SDS011;52653;50.080;21.992;2022-12-01T09:52:33;22.10;;;15.20;;
65871;SDS011;52653;50.080;21.992;2022-12-01T09:55:11;28.10;;;16.60;;
65871;SDS011;52653;50.080;21.992;2022-12-01T09:57:46;24.60;;;16.00;;
65871;SDS011;52653;50.080;21.992;2022-12-01T10:00:21;25.90;;;16.80;;
65871;SDS011;52653;50.080;21.992;2022-12-01T10:02:56;25.30;;;16.40;;
65871;SDS011;52653;50.080;21.992;2022-12-01T10:05:37;25.20;;;15.20;;
65871;SDS011;52653;50.080;21.992;2022-12-01T10:08:32;26.00;;;15.10;;
65871;SDS011;52653;50.080;21.992;2022-12-01T10:11:10;23.90;;;16.00;;
65871;SDS011;52653;50.080;21.992;2022-12-01T10:13:47;21.70;;;14.10;;
65871;SDS011;52653;50.080;21.992;2022-12-01T10:16:20;23.00;;;15.70;;
65871;SDS011;52653;50.080;21.992;2022-12-01T10:18:57;26.40;;;16.70;;
65871;SDS011;52653;50.080;21.992;2022-12-01T10:21:39;25.60;;;15.80;;
65871;SDS011;52653;50.080;21.992;2022-12-01T10:27:08;24.90;;;16.40;;
65871;SDS011;52653;50.080;21.992;2022-12-01T10:29:52;26.10;;;16.10;;
65871;SDS011;52653;50.080;21.992;2022-12-01T10:32:34;21.80;;;14.40;;
65871;SDS011;52653;50.080;21.992;2022-12-01T10:35:14;24.50;;;15.50;;
65871;SDS011;52653;50.080;21.992;2022-12-01T10:37:49;24.60;;;15.30;;
65871;SDS011;52653;50.080;21.992;2022-12-01T10:40:24;25.30;;;15.60;;
65871;SDS011;52653;50.080;21.992;2022-12-01T10:42:57;27.00;;;16.10;;
65871;SDS011;52653;50.080;21.992;2022-12-01T10:45:39;25.20;;;16.80;;
65871;SDS011;52653;50.080;21.992;2022-12-01T10:48:14;27.50;;;16.90;;
65871;SDS011;52653;50.080;21.992;2022-12-01T10:50:48;30.90;;;17.40;;
65871;SDS011;52653;50.080;21.992;2022-12-01T10:53:26;29.60;;;18.00;;
65871;SDS011;52653;50.080;21.992;2022-12-01T10:56:02;29.40;;;16.50;;
65871;SDS011;52653;50.080;21.992;2022-12-01T10:58:42;26.60;;;15.70;;
65871;SDS011;52653;50.080;21.992;2022-12-01T11:01:19;23.80;;;16.00;;
65871;SDS011;52653;50.080;21.992;2022-12-01T11:03:55;25.00;;;14.20;;
65871;SDS011;52653;50.080;21.992;2022-12-01T11:06:29;24.60;;;14.50;;
65871;SDS011;52653;50.080;21.992;2022-12-01T11:09:02;24.70;;;15.30;;
65871;SDS011;52653;50.080;21.992;2022-12-01T11:11:37;25.40;;;15.50;;
65871;SDS011;52653;50.080;21.992;2022-12-01T11:14:16;24.40;;;14.90;;
65871;SDS011;52653;50.080;21.992;2022-12-01T11:16:50;26.40;;;16.70;;
65871;SDS011;52653;50.080;21.992;2022-12-01T11:19:27;26.30;;;16.10;;
65871;SDS011;52653;50.080;21.992;2022-12-01T11:22:04;24.30;;;14.80;;
65871;SDS011;52653;50.080;21.992;2022-12-01T11:24:59;24.40;;;14.60;;
65871;SDS011;52653;50.080;21.992;2022-12-01T11:27:34;26.60;;;14.90;;
65871;SDS011;52653;50.080;21.992;2022-12-01T11:30:18;21.10;;;13.40;;
65871;SDS011;52653;50.080;21.992;2022-12-01T11:32:59;22.00;;;13.90;;
65871;SDS011;52653;50.080;21.992;2022-12-01T11:35:33;24.70;;;14.40;;
65871;SDS011;52653;50.080;21.992;2022-12-01T11:38:14;22.00;;;13.60;;
65871;SDS011;52653;50.080;21.992;2022-12-01T11:40:59;26.70;;;15.30;;
65871;SDS011;52653;50.080;21.992;2022-12-01T11:43:32;27.90;;;15.80;;
65871;SDS011;52653;50.080;21.992;2022-12-01T11:46:06;25.50;;;15.20;;
65871;SDS011;52653;50.080;21.992;2022-12-01T11:48:39;23.30;;;14.40;;
65871;SDS011;52653;50.080;21.992;2022-12-01T11:51:27;23.60;;;13.10;;
65871;SDS011;52653;50.080;21.992;2022-12-01T11:54:06;23.80;;;14.30;;
65871;SDS011;52653;50.080;21.992;2022-12-01T11:56:44;23.90;;;14.30;;
65871;SDS011;52653;50.080;21.992;2022-12-01T11:59:32;27.50;;;15.30;;
65871;SDS011;52653;50.080;21.992;2022-12-01T12:02:25;25.20;;;16.60;;
65871;SDS011;52653;50.080;21.992;2022-12-01T12:05:12;26.00;;;15.20;;
65871;SDS011;52653;50.080;21.992;2022-12-01T12:08:08;25.80;;;15.70;;
65871;SDS011;52653;50.080;21.992;2022-12-01T12:10:51;26.40;;;16.10;;
65871;SDS011;52653;50.080;21.992;2022-12-01T12:13:35;28.30;;;17.30;;
65871;SDS011;52653;50.080;21.992;2022-12-01T12:16:32;25.70;;;15.60;;
65871;SDS011;52653;50.080;21.992;2022-12-01T12:19:28;27.80;;;14.70;;
65871;SDS011;52653;50.080;21.992;2022-12-01T12:22:35;26.00;;;15.00;;
65871;SDS011;52653;50.080;21.992;2022-12-01T12:25:23;28.60;;;15.90;;
65871;SDS011;52653;50.080;21.992;2022-12-01T12:28:07;28.50;;;15.60;;
65871;SDS011;52653;50.080;21.992;2022-12-01T12:30:54;28.80;;;14.80;;
65871;SDS011;52653;50.080;21.992;2022-12-01T12:33:40;28.00;;;15.80;;
65871;SDS011;52653;50.080;21.992;2022-12-01T12:36:32;28.60;;;16.40;;
65871;SDS011;52653;50.080;21.992;2022-12-01T12:39:18;29.20;;;16.20;;
65871;SDS011;52653;50.080;21.992;2022-12-01T12:41:59;28.80;;;16.00;;
65871;SDS011;52653;50.080;21.992;2022-12-01T12:44:43;28.10;;;16.00;;
65871;SDS011;52653;50.080;21.992;2022-12-01T12:47:24;30.50;;;15.70;;
65871;SDS011;52653;50.080;21.992;2022-12-01T12:50:10;34.30;;;17.10;;
65871;SDS011;52653;50.080;21.992;2022-12-01T12:52:55;38.90;;;15.90;;
65871;SDS011;52653;50.080;21.992;2022-12-01T12:55:31;37.70;;;16.50;;
65871;SDS011;52653;50.080;21.992;2022-12-01T12:58:11;36.40;;;17.80;;
65871;SDS011;52653;50.080;21.992;2022-12-01T13:00:51;30.00;;;17.40;;
65871;SDS011;52653;50.080;21.992;2022-12-01T13:03:33;31.20;;;19.30;;
65871;SDS011;52653;50.080;21.992;2022-12-01T13:06:09;35.20;;;20.30;;
65871;SDS011;52653;50.080;21.992;2022-12-01T13:08:48;37.00;;;20.30;;
65871;SDS011;52653;50.080;21.992;2022-12-01T13:11:25;35.10;;;20.10;;
65871;SDS011;52653;50.080;21.992;2022-12-01T13:14:01;34.90;;;20.40;;
65871;SDS011;52653;50.080;21.992;2022-12-01T13:16:36;35.30;;;20.30;;
65871;SDS011;52653;50.080;21.992;2022-12-01T13:19:11;36.60;;;20.20;;
65871;SDS011;52653;50.080;21.992;2022-12-01T13:21:46;31.70;;;17.80;;
65871;SDS011;52653;50.080;21.992;2022-12-01T13:24:21;32.40;;;18.70;;
65871;SDS011;52653;50.080;21.992;2022-12-01T13:26:58;34.50;;;18.20;;
65871;SDS011;52653;50.080;21.992;2022-12-01T13:29:33;32.30;;;18.00;;
65871;SDS011;52653;50.080;21.992;2022-12-01T13:32:23;29.30;;;17.30;;
65871;SDS011;52653;50.080;21.992;2022-12-01T13:34:59;29.70;;;17.10;;
65871;SDS011;52653;50.080;21.992;2022-12-01T13:37:34;28.80;;;17.70;;
65871;SDS011;52653;50.080;21.992;2022-12-01T13:40:08;31.60;;;18.80;;
65871;SDS011;52653;50.080;21.992;2022-12-01T13:42:55;32.00;;;18.50;;
65871;SDS011;52653;50.080;21.992;2022-12-01T13:45:38;34.20;;;20.90;;
65871;SDS011;52653;50.080;21.992;2022-12-01T13:50:58;28.90;;;18.20;;
65871;SDS011;52653;50.080;21.992;2022-12-01T13:53:33;30.10;;;18.10;;
65871;SDS011;52653;50.080;21.992;2022-12-01T13:56:22;31.10;;;17.60;;
65871;SDS011;52653;50.080;21.992;2022-12-01T14:02:14;29.60;;;17.20;;
65871;SDS011;52653;50.080;21.992;2022-12-01T14:04:48;27.90;;;16.60;;
65871;SDS011;52653;50.080;21.992;2022-12-01T14:07:26;30.00;;;17.40;;
65871;SDS011;52653;50.080;21.992;2022-12-01T14:12:56;32.50;;;19.10;;
65871;SDS011;52653;50.080;21.992;2022-12-01T14:15:32;35.50;;;19.60;;
65871;SDS011;52653;50.080;21.992;2022-12-01T14:18:23;33.70;;;20.00;;
65871;SDS011;52653;50.080;21.992;2022-12-01T14:21:01;34.60;;;20.30;;
65871;SDS011;52653;50.080;21.992;2022-12-01T14:23:36;35.20;;;20.10;;
65871;SDS011;52653;50.080;21.992;2022-12-01T14:26:28;34.60;;;20.90;;
65871;SDS011;52653;50.080;21.992;2022-12-01T14:29:07;35.20;;;20.70;;
65871;SDS011;52653;50.080;21.992;2022-12-01T14:34:56;36.10;;;21.20;;
65871;SDS011;52653;50.080;21.992;2022-12-01T14:37:36;41.20;;;24.90;;
65871;SDS011;52653;50.080;21.992;2022-12-01T14:40:16;34.40;;;20.80;;
65871;SDS011;52653;50.080;21.992;2022-12-01T14:42:54;35.90;;;22.60;;
65871;SDS011;52653;50.080;21.992;2022-12-01T14:45:48;38.60;;;23.00;;
65871;SDS011;52653;50.080;21.992;2022-12-01T14:48:26;33.70;;;20.10;;
65871;SDS011;52653;50.080;21.992;2022-12-01T14:51:12;38.70;;;22.50;;
65871;SDS011;52653;50.080;21.992;2022-12-01T14:53:51;36.00;;;21.20;;
65871;SDS011;52653;50.080;21.992;2022-12-01T14:56:26;34.40;;;20.10;;
65871;SDS011;52653;50.080;21.992;2022-12-01T14:58:59;38.80;;;22.30;;
65871;SDS011;52653;50.080;21.992;2022-12-01T15:01:42;37.30;;;21.30;;
65871;SDS011;52653;50.080;21.992;2022-12-01T15:04:14;37.10;;;19.60;;
65871;SDS011;52653;50.080;21.992;2022-12-01T15:06:51;32.60;;;19.30;;
65871;SDS011;52653;50.080;21.992;2022-12-01T15:09:24;32.50;;;21.50;;
65871;SDS011;52653;50.080;21.992;2022-12-01T15:12:03;34.70;;;21.30;;
65871;SDS011;52653;50.080;21.992;2022-12-01T15:14:53;34.20;;;20.40;;
65871;SDS011;52653;50.080;21.992;2022-12-01T15:17:28;34.40;;;19.80;;
65871;SDS011;52653;50.080;21.992;2022-12-01T15:20:02;33.60;;;19.40;;
65871;SDS011;52653;50.080;21.992;2022-12-01T15:22:55;34.80;;;20.20;;
65871;SDS011;52653;50.080;21.992;2022-12-01T15:25:28;33.10;;;19.60;;